sensor_id;sensor_type;location;lat;lon;timestamp;P1;durP1;ratioP1;P2;durP2;ratioP2
7171;SDS011;3627;46.544;14.944;2024-02-15T00:01:40;1.50;;;1.50;;
7171;SDS011;3627;46.544;14.944;2024-02-15T00:04:07;1.57;;;1.57;;
7171;SDS011;3627;46.544;14.944;2024-02-15T00:06:34;1.60;;;1.60;;
7171;SDS011;3627;46.544;14.944;2024-02-15T00:09:01;1.70;;;1.70;;
7171;SDS011;3627;46.544;14.944;2024-02-15T00:11:27;1.73;;;1.73;;
7171;SDS011;3627;46.544;14.944;2024-02-15T00:13:54;1.70;;;1.70;;
7171;SDS011;3627;46.544;14.944;2024-02-15T00:16:21;1.70;;;1.70;;
7171;SDS011;3627;46.544;14.944;2024-02-15T00:18:48;1.70;;;1.70;;
7171;SDS011;3627;46.544;14.944;2024-02-15T00:21:14;1.80;;;1.80;;
7171;SDS011;3627;46.544;14.944;2024-02-15T00:23:42;1.50;;;1.50;;
7171;SDS011;3627;46.544;14.944;2024-02-15T00:26:08;1.53;;;1.53;;
7171;SDS011;3627;46.544;14.944;2024-02-15T00:28:36;1.80;;;1.80;;
7171;SDS011;3627;46.544;14.944;2024-02-15T00:31:03;1.70;;;1.70;;
7171;SDS011;3627;46.544;14.944;2024-02-15T00:33:29;1.70;;;1.70;;
7171;SDS011;3627;46.544;14.944;2024-02-15T00:35:56;1.60;;;1.60;;
7171;SDS011;3627;46.544;14.944;2024-02-15T00:38:23;1.60;;;1.60;;
7171;SDS011;3627;46.544;14.944;2024-02-15T00:40:51;1.60;;;1.60;;
7171;SDS011;3627;46.544;14.944;2024-02-15T00:43:18;1.80;;;1.80;;
7171;SDS011;3627;46.544;14.944;2024-02-15T00:45:44;1.70;;;1.70;;
7171;SDS011;3627;46.544;14.944;2024-02-15T00:48:11;1.70;;;1.70;;
7171;SDS011;3627;46.544;14.944;2024-02-15T00:50:37;1.77;;;1.77;;
7171;SDS011;3627;46.544;14.944;2024-02-15T00:53:03;1.70;;;1.70;;
7171;SDS011;3627;46.544;14.944;2024-02-15T00:55:30;1.80;;;1.80;;
7171;SDS011;3627;46.544;14.944;2024-02-15T00:57:58;1.70;;;1.70;;
7171;SDS011;3627;46.544;14.944;2024-02-15T01:00:25;1.60;;;1.60;;
7171;SDS011;3627;46.544;14.944;2024-02-15T01:02:52;1.73;;;1.73;;
7171;SDS011;3627;46.544;14.944;2024-02-15T01:05:19;1.60;;;1.60;;
7171;SDS011;3627;46.544;14.944;2024-02-15T01:07:45;1.60;;;1.60;;
7171;SDS011;3627;46.544;14.944;2024-02-15T01:10:14;1.70;;;1.70;;
7171;SDS011;3627;46.544;14.944;2024-02-15T01:12:40;1.70;;;1.70;;
7171;SDS011;3627;46.544;14.944;2024-02-15T01:15:08;1.87;;;1.87;;
7171;SDS011;3627;46.544;14.944;2024-02-15T01:17:35;1.60;;;1.60;;
7171;SDS011;3627;46.544;14.944;2024-02-15T01:20:01;1.73;;;1.73;;
7171;SDS011;3627;46.544;14.944;2024-02-15T01:22:27;1.50;;;1.50;;
7171;SDS011;3627;46.544;14.944;2024-02-15T01:24:54;1.77;;;1.77;;
7171;SDS011;3627;46.544;14.944;2024-02-15T01:27:22;1.60;;;1.60;;
7171;SDS011;3627;46.544;14.944;2024-02-15T01:29:48;1.70;;;1.70;;
7171;SDS011;3627;46.544;14.944;2024-02-15T01:32:16;1.57;;;1.57;;
7171;SDS011;3627;46.544;14.944;2024-02-15T01:34:42;2.07;;;1.97;;
7171;SDS011;3627;46.544;14.944;2024-02-15T01:37:08;1.70;;;1.70;;
7171;SDS011;3627;46.544;14.944;2024-02-15T01:39:35;1.83;;;1.83;;
7171;SDS011;3627;46.544;14.944;2024-02-15T01:42:02;1.70;;;1.70;;
7171;SDS011;3627;46.544;14.944;2024-02-15T01:44:28;1.73;;;1.73;;
7171;SDS011;3627;46.544;14.944;2024-02-15T01:46:54;1.60;;;1.60;;
7171;SDS011;3627;46.544;14.944;2024-02-15T01:49:22;1.67;;;1.67;;
7171;SDS011;3627;46.544;14.944;2024-02-15T01:51:49;1.70;;;1.70;;
7171;SDS011;3627;46.544;14.944;2024-02-15T01:54:16;1.80;;;1.80;;
7171;SDS011;3627;46.544;14.944;2024-02-15T01:56:43;1.70;;;1.70;;
7171;SDS011;3627;46.544;14.944;2024-02-15T01:59:10;1.70;;;1.70;;
7171;SDS011;3627;46.544;14.944;2024-02-15T02:01:38;1.70;;;1.70;;
7171;SDS011;3627;46.544;14.944;2024-02-15T02:04:04;1.80;;;1.80;;
7171;SDS011;3627;46.544;14.944;2024-02-15T02:06:32;1.83;;;1.83;;
7171;SDS011;3627;46.544;14.944;2024-02-15T02:08:59;1.63;;;1.63;;
7171;SDS011;3627;46.544;14.944;2024-02-15T02:11:27;1.70;;;1.70;;
7171;SDS011;3627;46.544;14.944;2024-02-15T02:13:54;1.70;;;1.70;;
7171;SDS011;3627;46.544;14.944;2024-02-15T02:16:24;1.60;;;1.60;;
7171;SDS011;3627;46.544;14.944;2024-02-15T02:18:50;1.60;;;1.60;;
7171;SDS011;3627;46.544;14.944;2024-02-15T02:21:17;1.60;;;1.60;;
7171;SDS011;3627;46.544;14.944;2024-02-15T02:23:44;1.70;;;1.70;;
7171;SDS011;3627;46.544;14.944;2024-02-15T02:26:13;1.70;;;1.70;;
7171;SDS011;3627;46.544;14.944;2024-02-15T02:28:39;1.70;;;1.70;;
7171;SDS011;3627;46.544;14.944;2024-02-15T02:31:06;1.63;;;1.60;;
7171;SDS011;3627;46.544;14.944;2024-02-15T02:33:32;1.70;;;1.70;;
7171;SDS011;3627;46.544;14.944;2024-02-15T02:36:00;1.60;;;1.60;;
7171;SDS011;3627;46.544;14.944;2024-02-15T02:38:26;1.63;;;1.63;;
7171;SDS011;3627;46.544;14.944;2024-02-15T02:40:53;1.60;;;1.60;;
7171;SDS011;3627;46.544;14.944;2024-02-15T02:43:21;1.60;;;1.60;;
7171;SDS011;3627;46.544;14.944;2024-02-15T02:45:47;1.60;;;1.60;;
7171;SDS011;3627;46.544;14.944;2024-02-15T02:48:13;1.60;;;1.60;;
7171;SDS011;3627;46.544;14.944;2024-02-15T02:50:40;1.70;;;1.70;;
7171;SDS011;3627;46.544;14.944;2024-02-15T02:53:06;1.70;;;1.70;;
7171;SDS011;3627;46.544;14.944;2024-02-15T02:55:36;1.70;;;1.70;;
7171;SDS011;3627;46.544;14.944;2024-02-15T02:58:03;1.70;;;1.70;;
7171;SDS011;3627;46.544;14.944;2024-02-15T03:00:32;1.80;;;1.80;;
7171;SDS011;3627;46.544;14.944;2024-02-15T03:02:59;1.60;;;1.60;;
7171;SDS011;3627;46.544;14.944;2024-02-15T03:05:25;1.60;;;1.60;;
7171;SDS011;3627;46.544;14.944;2024-02-15T03:07:52;1.50;;;1.50;;
7171;SDS011;3627;46.544;14.944;2024-02-15T03:10:18;1.60;;;1.60;;
7171;SDS011;3627;46.544;14.944;2024-02-15T03:12:44;1.87;;;1.87;;
7171;SDS011;3627;46.544;14.944;2024-02-15T03:15:12;1.60;;;1.60;;
7171;SDS011;3627;46.544;14.944;2024-02-15T03:17:40;1.60;;;1.60;;
7171;SDS011;3627;46.544;14.944;2024-02-15T03:20:07;1.53;;;1.53;;
7171;SDS011;3627;46.544;14.944;2024-02-15T03:22:37;1.80;;;1.80;;
7171;SDS011;3627;46.544;14.944;2024-02-15T03:25:03;1.60;;;1.60;;
7171;SDS011;3627;46.544;14.944;2024-02-15T03:27:32;1.57;;;1.57;;
7171;SDS011;3627;46.544;14.944;2024-02-15T03:29:59;1.67;;;1.67;;
7171;SDS011;3627;46.544;14.944;2024-02-15T03:32:26;1.70;;;1.70;;
7171;SDS011;3627;46.544;14.944;2024-02-15T03:34:53;1.60;;;1.60;;
7171;SDS011;3627;46.544;14.944;2024-02-15T03:37:20;1.57;;;1.57;;
7171;SDS011;3627;46.544;14.944;2024-02-15T03:39:46;1.50;;;1.50;;
7171;SDS011;3627;46.544;14.944;2024-02-15T03:42:13;1.77;;;1.77;;
7171;SDS011;3627;46.544;14.944;2024-02-15T03:44:40;1.70;;;1.70;;
7171;SDS011;3627;46.544;14.944;2024-02-15T03:47:06;1.57;;;1.57;;
7171;SDS011;3627;46.544;14.944;2024-02-15T03:49:33;1.53;;;1.53;;
7171;SDS011;3627;46.544;14.944;2024-02-15T03:52:00;1.70;;;1.70;;
7171;SDS011;3627;46.544;14.944;2024-02-15T03:54:27;1.60;;;1.60;;
7171;SDS011;3627;46.544;14.944;2024-02-15T03:56:55;1.60;;;1.60;;
7171;SDS011;3627;46.544;14.944;2024-02-15T03:59:22;1.60;;;1.60;;
7171;SDS011;3627;46.544;14.944;2024-02-15T04:01:51;1.60;;;1.60;;
7171;SDS011;3627;46.544;14.944;2024-02-15T04:04:18;1.60;;;1.60;;
7171;SDS011;3627;46.544;14.944;2024-02-15T04:06:46;1.60;;;1.60;;
7171;SDS011;3627;46.544;14.944;2024-02-15T04:09:13;1.50;;;1.50;;
7171;SDS011;3627;46.544;14.944;2024-02-15T04:11:40;1.60;;;1.60;;
7171;SDS011;3627;46.544;14.944;2024-02-15T04:14:06;1.50;;;1.50;;
7171;SDS011;3627;46.544;14.944;2024-02-15T04:16:32;1.50;;;1.50;;
7171;SDS011;3627;46.544;14.944;2024-02-15T04:19:01;1.63;;;1.63;;
7171;SDS011;3627;46.544;14.944;2024-02-15T04:21:28;1.50;;;1.50;;
7171;SDS011;3627;46.544;14.944;2024-02-15T04:23:55;1.50;;;1.50;;
7171;SDS011;3627;46.544;14.944;2024-02-15T04:26:23;1.57;;;1.57;;
7171;SDS011;3627;46.544;14.944;2024-02-15T04:28:52;1.40;;;1.40;;
7171;SDS011;3627;46.544;14.944;2024-02-15T04:31:18;1.77;;;1.77;;
7171;SDS011;3627;46.544;14.944;2024-02-15T04:33:46;1.57;;;1.57;;
7171;SDS011;3627;46.544;14.944;2024-02-15T04:36:14;1.80;;;1.80;;
7171;SDS011;3627;46.544;14.944;2024-02-15T04:38:44;1.65;;;1.65;;
7171;SDS011;3627;46.544;14.944;2024-02-15T04:41:11;1.70;;;1.70;;
7171;SDS011;3627;46.544;14.944;2024-02-15T04:43:38;1.50;;;1.50;;
7171;SDS011;3627;46.544;14.944;2024-02-15T04:46:05;1.50;;;1.50;;
7171;SDS011;3627;46.544;14.944;2024-02-15T04:48:32;1.70;;;1.70;;
7171;SDS011;3627;46.544;14.944;2024-02-15T04:50:59;1.60;;;1.60;;
7171;SDS011;3627;46.544;14.944;2024-02-15T04:53:26;1.87;;;1.87;;
7171;SDS011;3627;46.544;14.944;2024-02-15T04:55:55;1.70;;;1.70;;
7171;SDS011;3627;46.544;14.944;2024-02-15T04:58:21;1.60;;;1.60;;
7171;SDS011;3627;46.544;14.944;2024-02-15T05:00:49;1.90;;;1.90;;
7171;SDS011;3627;46.544;14.944;2024-02-15T05:03:18;1.67;;;1.67;;
7171;SDS011;3627;46.544;14.944;2024-02-15T05:05:44;1.50;;;1.50;;
7171;SDS011;3627;46.544;14.944;2024-02-15T05:08:11;1.60;;;1.60;;
7171;SDS011;3627;46.544;14.944;2024-02-15T05:10:37;1.70;;;1.70;;
7171;SDS011;3627;46.544;14.944;2024-02-15T05:13:04;1.50;;;1.50;;
7171;SDS011;3627;46.544;14.944;2024-02-15T05:15:30;1.60;;;1.60;;
7171;SDS011;3627;46.544;14.944;2024-02-15T05:17:59;1.70;;;1.70;;
7171;SDS011;3627;46.544;14.944;2024-02-15T05:20:26;1.60;;;1.60;;
7171;SDS011;3627;46.544;14.944;2024-02-15T05:22:52;1.70;;;1.70;;
7171;SDS011;3627;46.544;14.944;2024-02-15T05:25:19;1.50;;;1.50;;
7171;SDS011;3627;46.544;14.944;2024-02-15T05:27:47;1.87;;;1.87;;
7171;SDS011;3627;46.544;14.944;2024-02-15T05:30:14;1.50;;;1.50;;
7171;SDS011;3627;46.544;14.944;2024-02-15T05:32:40;1.50;;;1.50;;
7171;SDS011;3627;46.544;14.944;2024-02-15T05:35:09;1.40;;;1.40;;
7171;SDS011;3627;46.544;14.944;2024-02-15T05:37:36;1.50;;;1.50;;
7171;SDS011;3627;46.544;14.944;2024-02-15T05:40:03;1.53;;;1.53;;
7171;SDS011;3627;46.544;14.944;2024-02-15T05:42:29;1.60;;;1.60;;
7171;SDS011;3627;46.544;14.944;2024-02-15T05:44:56;1.70;;;1.70;;
7171;SDS011;3627;46.544;14.944;2024-02-15T05:47:24;1.60;;;1.60;;
7171;SDS011;3627;46.544;14.944;2024-02-15T05:49:50;1.65;;;1.65;;
7171;SDS011;3627;46.544;14.944;2024-02-15T05:52:18;1.80;;;1.80;;
7171;SDS011;3627;46.544;14.944;2024-02-15T05:54:45;1.50;;;1.50;;
7171;SDS011;3627;46.544;14.944;2024-02-15T05:57:11;1.63;;;1.63;;
7171;SDS011;3627;46.544;14.944;2024-02-15T05:59:37;1.63;;;1.63;;
7171;SDS011;3627;46.544;14.944;2024-02-15T06:02:05;1.60;;;1.60;;
7171;SDS011;3627;46.544;14.944;2024-02-15T06:04:33;1.70;;;1.70;;
7171;SDS011;3627;46.544;14.944;2024-02-15T06:06:59;1.60;;;1.60;;
7171;SDS011;3627;46.544;14.944;2024-02-15T06:09:27;1.70;;;1.70;;
7171;SDS011;3627;46.544;14.944;2024-02-15T06:11:55;1.50;;;1.50;;
7171;SDS011;3627;46.544;14.944;2024-02-15T06:14:23;1.50;;;1.50;;
7171;SDS011;3627;46.544;14.944;2024-02-15T06:16:49;1.60;;;1.60;;
7171;SDS011;3627;46.544;14.944;2024-02-15T06:19:16;1.70;;;1.70;;
7171;SDS011;3627;46.544;14.944;2024-02-15T06:21:42;1.50;;;1.50;;
7171;SDS011;3627;46.544;14.944;2024-02-15T06:24:09;2.10;;;2.00;;
7171;SDS011;3627;46.544;14.944;2024-02-15T06:26:36;1.60;;;1.60;;
7171;SDS011;3627;46.544;14.944;2024-02-15T06:29:04;1.77;;;1.77;;
7171;SDS011;3627;46.544;14.944;2024-02-15T06:31:47;1.70;;;1.70;;
7171;SDS011;3627;46.544;14.944;2024-02-15T06:34:31;1.60;;;1.60;;
7171;SDS011;3627;46.544;14.944;2024-02-15T06:40:14;1.53;;;1.53;;
7171;SDS011;3627;46.544;14.944;2024-02-15T06:42:42;1.50;;;1.50;;
7171;SDS011;3627;46.544;14.944;2024-02-15T06:45:09;1.50;;;1.50;;
7171;SDS011;3627;46.544;14.944;2024-02-15T06:47:38;1.60;;;1.60;;
7171;SDS011;3627;46.544;14.944;2024-02-15T06:50:07;1.77;;;1.77;;
7171;SDS011;3627;46.544;14.944;2024-02-15T06:52:34;1.80;;;1.80;;
7171;SDS011;3627;46.544;14.944;2024-02-15T06:55:00;1.67;;;1.67;;
7171;SDS011;3627;46.544;14.944;2024-02-15T06:57:27;1.58;;;1.58;;
7171;SDS011;3627;46.544;14.944;2024-02-15T06:59:55;1.50;;;1.50;;
7171;SDS011;3627;46.544;14.944;2024-02-15T07:02:21;1.60;;;1.60;;
7171;SDS011;3627;46.544;14.944;2024-02-15T07:04:48;1.60;;;1.60;;
7171;SDS011;3627;46.544;14.944;2024-02-15T07:07:17;1.70;;;1.70;;
7171;SDS011;3627;46.544;14.944;2024-02-15T07:09:43;1.60;;;1.60;;
7171;SDS011;3627;46.544;14.944;2024-02-15T07:12:09;1.57;;;1.57;;
7171;SDS011;3627;46.544;14.944;2024-02-15T07:14:36;1.60;;;1.60;;
7171;SDS011;3627;46.544;14.944;2024-02-15T07:17:04;1.50;;;1.50;;
7171;SDS011;3627;46.544;14.944;2024-02-15T07:19:31;1.60;;;1.60;;
7171;SDS011;3627;46.544;14.944;2024-02-15T07:22:01;1.50;;;1.50;;
7171;SDS011;3627;46.544;14.944;2024-02-15T07:24:27;1.63;;;1.63;;
7171;SDS011;3627;46.544;14.944;2024-02-15T07:26:54;1.67;;;1.67;;
7171;SDS011;3627;46.544;14.944;2024-02-15T07:29:20;1.50;;;1.50;;
7171;SDS011;3627;46.544;14.944;2024-02-15T07:31:48;1.50;;;1.50;;
7171;SDS011;3627;46.544;14.944;2024-02-15T07:34:16;1.50;;;1.50;;
7171;SDS011;3627;46.544;14.944;2024-02-15T07:36:42;1.50;;;1.50;;
7171;SDS011;3627;46.544;14.944;2024-02-15T07:39:10;1.50;;;1.50;;
7171;SDS011;3627;46.544;14.944;2024-02-15T07:41:37;1.50;;;1.50;;
7171;SDS011;3627;46.544;14.944;2024-02-15T07:44:03;1.40;;;1.40;;
7171;SDS011;3627;46.544;14.944;2024-02-15T07:46:30;1.40;;;1.40;;
7171;SDS011;3627;46.544;14.944;2024-02-15T07:48:57;1.45;;;1.45;;
7171;SDS011;3627;46.544;14.944;2024-02-15T07:51:25;1.50;;;1.50;;
7171;SDS011;3627;46.544;14.944;2024-02-15T07:53:52;1.60;;;1.60;;
7171;SDS011;3627;46.544;14.944;2024-02-15T07:56:19;1.63;;;1.63;;
7171;SDS011;3627;46.544;14.944;2024-02-15T07:58:47;1.33;;;1.33;;
7171;SDS011;3627;46.544;14.944;2024-02-15T08:01:17;1.40;;;1.40;;
7171;SDS011;3627;46.544;14.944;2024-02-15T08:03:45;1.50;;;1.50;;
7171;SDS011;3627;46.544;14.944;2024-02-15T08:06:12;1.42;;;1.42;;
7171;SDS011;3627;46.544;14.944;2024-02-15T08:08:41;1.52;;;1.52;;
7171;SDS011;3627;46.544;14.944;2024-02-15T08:11:10;1.40;;;1.40;;
7171;SDS011;3627;46.544;14.944;2024-02-15T08:13:40;1.48;;;1.48;;
7171;SDS011;3627;46.544;14.944;2024-02-15T08:16:06;1.50;;;1.50;;
7171;SDS011;3627;46.544;14.944;2024-02-15T08:18:33;1.40;;;1.40;;
7171;SDS011;3627;46.544;14.944;2024-02-15T08:21:00;1.30;;;1.30;;
7171;SDS011;3627;46.544;14.944;2024-02-15T08:23:27;1.25;;;1.25;;
7171;SDS011;3627;46.544;14.944;2024-02-15T08:25:54;1.30;;;1.30;;
7171;SDS011;3627;46.544;14.944;2024-02-15T08:28:22;1.10;;;1.10;;
7171;SDS011;3627;46.544;14.944;2024-02-15T08:30:49;1.15;;;1.15;;
7171;SDS011;3627;46.544;14.944;2024-02-15T08:33:15;1.00;;;1.00;;
7171;SDS011;3627;46.544;14.944;2024-02-15T08:35:44;1.00;;;1.00;;
7171;SDS011;3627;46.544;14.944;2024-02-15T08:38:10;1.10;;;1.10;;
7171;SDS011;3627;46.544;14.944;2024-02-15T08:40:37;1.10;;;1.10;;
7171;SDS011;3627;46.544;14.944;2024-02-15T08:43:04;1.10;;;1.10;;
7171;SDS011;3627;46.544;14.944;2024-02-15T08:45:31;1.00;;;1.00;;
7171;SDS011;3627;46.544;14.944;2024-02-15T08:47:57;1.08;;;1.08;;
7171;SDS011;3627;46.544;14.944;2024-02-15T08:50:24;0.93;;;0.93;;
7171;SDS011;3627;46.544;14.944;2024-02-15T08:52:50;1.00;;;1.00;;
7171;SDS011;3627;46.544;14.944;2024-02-15T08:55:16;0.95;;;0.95;;
7171;SDS011;3627;46.544;14.944;2024-02-15T08:57:45;1.00;;;1.00;;
7171;SDS011;3627;46.544;14.944;2024-02-15T09:00:14;0.90;;;0.90;;
7171;SDS011;3627;46.544;14.944;2024-02-15T09:02:41;0.90;;;0.90;;
7171;SDS011;3627;46.544;14.944;2024-02-15T09:05:08;0.77;;;0.77;;
7171;SDS011;3627;46.544;14.944;2024-02-15T09:07:34;0.60;;;0.60;;
7171;SDS011;3627;46.544;14.944;2024-02-15T09:10:01;0.80;;;0.80;;
7171;SDS011;3627;46.544;14.944;2024-02-15T09:12:28;0.73;;;0.73;;
7171;SDS011;3627;46.544;14.944;2024-02-15T09:14:56;0.68;;;0.68;;
7171;SDS011;3627;46.544;14.944;2024-02-15T09:17:24;0.80;;;0.80;;
7171;SDS011;3627;46.544;14.944;2024-02-15T09:19:51;0.70;;;0.70;;
7171;SDS011;3627;46.544;14.944;2024-02-15T09:22:18;0.57;;;0.57;;
7171;SDS011;3627;46.544;14.944;2024-02-15T09:24:45;0.70;;;0.70;;
7171;SDS011;3627;46.544;14.944;2024-02-15T09:27:11;0.80;;;0.80;;
7171;SDS011;3627;46.544;14.944;2024-02-15T09:29:38;0.80;;;0.80;;
7171;SDS011;3627;46.544;14.944;2024-02-15T09:32:05;0.70;;;0.70;;
7171;SDS011;3627;46.544;14.944;2024-02-15T09:34:33;0.80;;;0.80;;
7171;SDS011;3627;46.544;14.944;2024-02-15T09:36:59;0.90;;;0.90;;
7171;SDS011;3627;46.544;14.944;2024-02-15T09:39:26;0.90;;;0.90;;
7171;SDS011;3627;46.544;14.944;2024-02-15T09:41:53;1.10;;;1.10;;
7171;SDS011;3627;46.544;14.944;2024-02-15T09:44:23;0.90;;;0.90;;
7171;SDS011;3627;46.544;14.944;2024-02-15T09:46:53;1.00;;;1.00;;
7171;SDS011;3627;46.544;14.944;2024-02-15T09:49:21;1.00;;;1.00;;
7171;SDS011;3627;46.544;14.944;2024-02-15T09:51:49;1.00;;;1.00;;
7171;SDS011;3627;46.544;14.944;2024-02-15T09:54:15;0.80;;;0.80;;
7171;SDS011;3627;46.544;14.944;2024-02-15T09:56:47;0.90;;;0.90;;
7171;SDS011;3627;46.544;14.944;2024-02-15T09:59:13;1.00;;;1.00;;
7171;SDS011;3627;46.544;14.944;2024-02-15T10:01:40;1.20;;;1.20;;
7171;SDS011;3627;46.544;14.944;2024-02-15T10:04:06;1.10;;;1.10;;
7171;SDS011;3627;46.544;14.944;2024-02-15T10:06:33;0.90;;;0.90;;
7171;SDS011;3627;46.544;14.944;2024-02-15T10:11:45;1.00;;;1.00;;
7171;SDS011;3627;46.544;14.944;2024-02-15T10:14:20;1.08;;;1.08;;
7171;SDS011;3627;46.544;14.944;2024-02-15T10:16:46;0.80;;;0.80;;
7171;SDS011;3627;46.544;14.944;2024-02-15T10:19:13;0.98;;;0.98;;
7171;SDS011;3627;46.544;14.944;2024-02-15T10:21:40;1.00;;;1.00;;
7171;SDS011;3627;46.544;14.944;2024-02-15T10:24:07;0.90;;;0.90;;
7171;SDS011;3627;46.544;14.944;2024-02-15T10:26:33;0.90;;;0.90;;
7171;SDS011;3627;46.544;14.944;2024-02-15T10:29:09;0.90;;;0.90;;
7171;SDS011;3627;46.544;14.944;2024-02-15T10:31:36;0.80;;;0.80;;
7171;SDS011;3627;46.544;14.944;2024-02-15T10:34:03;0.80;;;0.80;;
7171;SDS011;3627;46.544;14.944;2024-02-15T10:36:30;0.70;;;0.70;;
7171;SDS011;3627;46.544;14.944;2024-02-15T10:39:09;0.90;;;0.90;;
7171;SDS011;3627;46.544;14.944;2024-02-15T10:41:41;0.80;;;0.80;;
7171;SDS011;3627;46.544;14.944;2024-02-15T10:44:10;0.80;;;0.80;;
7171;SDS011;3627;46.544;14.944;2024-02-15T10:46:38;0.90;;;0.90;;
7171;SDS011;3627;46.544;14.944;2024-02-15T10:49:05;0.80;;;0.80;;
7171;SDS011;3627;46.544;14.944;2024-02-15T10:51:31;0.80;;;0.80;;
7171;SDS011;3627;46.544;14.944;2024-02-15T10:54:01;0.90;;;0.90;;
7171;SDS011;3627;46.544;14.944;2024-02-15T10:56:32;0.88;;;0.88;;
7171;SDS011;3627;46.544;14.944;2024-02-15T10:59:10;0.82;;;0.82;;
7171;SDS011;3627;46.544;14.944;2024-02-15T11:01:40;0.80;;;0.80;;
7171;SDS011;3627;46.544;14.944;2024-02-15T11:04:07;0.95;;;0.95;;
7171;SDS011;3627;46.544;14.944;2024-02-15T11:06:35;0.90;;;0.90;;
7171;SDS011;3627;46.544;14.944;2024-02-15T11:09:01;0.90;;;0.90;;
7171;SDS011;3627;46.544;14.944;2024-02-15T11:11:28;0.93;;;0.93;;
7171;SDS011;3627;46.544;14.944;2024-02-15T11:16:42;1.00;;;1.00;;
7171;SDS011;3627;46.544;14.944;2024-02-15T11:19:08;0.90;;;0.90;;
7171;SDS011;3627;46.544;14.944;2024-02-15T11:24:25;1.10;;;1.10;;
7171;SDS011;3627;46.544;14.944;2024-02-15T11:26:53;1.00;;;1.00;;
7171;SDS011;3627;46.544;14.944;2024-02-15T11:32:10;1.00;;;1.00;;
7171;SDS011;3627;46.544;14.944;2024-02-15T11:35:02;1.02;;;1.02;;
7171;SDS011;3627;46.544;14.944;2024-02-15T11:37:53;1.00;;;1.00;;
7171;SDS011;3627;46.544;14.944;2024-02-15T11:40:20;1.00;;;1.00;;
7171;SDS011;3627;46.544;14.944;2024-02-15T11:42:51;1.00;;;1.00;;
7171;SDS011;3627;46.544;14.944;2024-02-15T11:45:18;1.10;;;1.10;;
7171;SDS011;3627;46.544;14.944;2024-02-15T11:47:48;1.00;;;1.00;;
7171;SDS011;3627;46.544;14.944;2024-02-15T11:50:15;1.10;;;1.10;;
7171;SDS011;3627;46.544;14.944;2024-02-15T11:52:42;1.02;;;1.02;;
7171;SDS011;3627;46.544;14.944;2024-02-15T11:55:09;1.02;;;1.02;;
7171;SDS011;3627;46.544;14.944;2024-02-15T11:57:38;1.10;;;1.10;;
7171;SDS011;3627;46.544;14.944;2024-02-15T12:00:22;1.10;;;1.10;;
7171;SDS011;3627;46.544;14.944;2024-02-15T12:03:07;1.10;;;1.10;;
7171;SDS011;3627;46.544;14.944;2024-02-15T12:05:51;1.00;;;1.00;;
7171;SDS011;3627;46.544;14.944;2024-02-15T12:08:35;0.90;;;0.90;;
7171;SDS011;3627;46.544;14.944;2024-02-15T12:11:19;0.98;;;0.98;;
7171;SDS011;3627;46.544;14.944;2024-02-15T12:14:03;1.10;;;1.10;;
7171;SDS011;3627;46.544;14.944;2024-02-15T12:16:47;1.08;;;1.08;;
7171;SDS011;3627;46.544;14.944;2024-02-15T12:19:44;1.10;;;1.10;;
7171;SDS011;3627;46.544;14.944;2024-02-15T12:22:11;1.00;;;1.00;;
7171;SDS011;3627;46.544;14.944;2024-02-15T12:24:37;1.00;;;1.00;;
7171;SDS011;3627;46.544;14.944;2024-02-15T12:27:04;0.90;;;0.90;;
7171;SDS011;3627;46.544;14.944;2024-02-15T12:29:30;0.95;;;0.95;;
7171;SDS011;3627;46.544;14.944;2024-02-15T12:31:57;0.93;;;0.93;;
7171;SDS011;3627;46.544;14.944;2024-02-15T12:34:24;1.00;;;1.00;;
7171;SDS011;3627;46.544;14.944;2024-02-15T12:37:04;0.95;;;0.95;;
7171;SDS011;3627;46.544;14.944;2024-02-15T12:39:30;1.13;;;1.13;;
7171;SDS011;3627;46.544;14.944;2024-02-15T12:41:57;1.00;;;1.00;;
7171;SDS011;3627;46.544;14.944;2024-02-15T12:44:23;1.00;;;1.00;;
7171;SDS011;3627;46.544;14.944;2024-02-15T12:46:53;0.93;;;0.93;;
7171;SDS011;3627;46.544;14.944;2024-02-15T12:49:27;0.95;;;0.95;;
7171;SDS011;3627;46.544;14.944;2024-02-15T12:54:41;1.00;;;1.00;;
7171;SDS011;3627;46.544;14.944;2024-02-15T12:57:09;1.00;;;1.00;;
7171;SDS011;3627;46.544;14.944;2024-02-15T12:59:37;0.90;;;0.90;;
7171;SDS011;3627;46.544;14.944;2024-02-15T13:02:04;1.02;;;1.02;;
7171;SDS011;3627;46.544;14.944;2024-02-15T13:04:30;0.95;;;0.95;;
7171;SDS011;3627;46.544;14.944;2024-02-15T13:06:58;1.10;;;1.10;;
7171;SDS011;3627;46.544;14.944;2024-02-15T13:09:24;1.10;;;1.10;;
7171;SDS011;3627;46.544;14.944;2024-02-15T13:11:51;0.90;;;0.90;;
7171;SDS011;3627;46.544;14.944;2024-02-15T13:14:18;1.10;;;1.10;;
7171;SDS011;3627;46.544;14.944;2024-02-15T13:16:45;0.98;;;0.98;;
7171;SDS011;3627;46.544;14.944;2024-02-15T13:19:13;1.08;;;1.08;;
7171;SDS011;3627;46.544;14.944;2024-02-15T13:21:39;0.98;;;0.98;;
7171;SDS011;3627;46.544;14.944;2024-02-15T13:24:07;1.00;;;1.00;;
7171;SDS011;3627;46.544;14.944;2024-02-15T13:26:36;1.00;;;1.00;;
7171;SDS011;3627;46.544;14.944;2024-02-15T13:29:02;1.00;;;1.00;;
7171;SDS011;3627;46.544;14.944;2024-02-15T13:31:28;1.00;;;1.00;;
7171;SDS011;3627;46.544;14.944;2024-02-15T13:33:56;1.02;;;1.02;;
7171;SDS011;3627;46.544;14.944;2024-02-15T13:36:22;0.90;;;0.90;;
7171;SDS011;3627;46.544;14.944;2024-02-15T13:38:49;0.90;;;0.90;;
7171;SDS011;3627;46.544;14.944;2024-02-15T13:41:17;0.93;;;0.93;;
7171;SDS011;3627;46.544;14.944;2024-02-15T13:43:44;0.90;;;0.90;;
7171;SDS011;3627;46.544;14.944;2024-02-15T13:46:10;1.00;;;1.00;;
7171;SDS011;3627;46.544;14.944;2024-02-15T13:48:36;1.00;;;1.00;;
7171;SDS011;3627;46.544;14.944;2024-02-15T13:51:03;1.00;;;1.00;;
7171;SDS011;3627;46.544;14.944;2024-02-15T13:53:29;1.05;;;1.05;;
7171;SDS011;3627;46.544;14.944;2024-02-15T13:55:56;1.00;;;1.00;;
7171;SDS011;3627;46.544;14.944;2024-02-15T13:58:24;1.00;;;1.00;;
7171;SDS011;3627;46.544;14.944;2024-02-15T14:00:50;1.10;;;1.10;;
7171;SDS011;3627;46.544;14.944;2024-02-15T14:03:17;1.20;;;1.20;;
7171;SDS011;3627;46.544;14.944;2024-02-15T14:05:46;1.10;;;1.10;;
7171;SDS011;3627;46.544;14.944;2024-02-15T14:08:14;1.10;;;1.10;;
7171;SDS011;3627;46.544;14.944;2024-02-15T14:10:41;0.90;;;0.90;;
7171;SDS011;3627;46.544;14.944;2024-02-15T14:13:07;1.10;;;1.10;;
7171;SDS011;3627;46.544;14.944;2024-02-15T14:15:35;1.10;;;1.10;;
7171;SDS011;3627;46.544;14.944;2024-02-15T14:18:03;1.20;;;1.20;;
7171;SDS011;3627;46.544;14.944;2024-02-15T14:20:29;1.10;;;1.10;;
7171;SDS011;3627;46.544;14.944;2024-02-15T14:22:56;1.10;;;1.10;;
7171;SDS011;3627;46.544;14.944;2024-02-15T14:25:22;1.08;;;1.08;;
7171;SDS011;3627;46.544;14.944;2024-02-15T14:27:49;1.02;;;1.02;;
7171;SDS011;3627;46.544;14.944;2024-02-15T14:30:15;1.00;;;1.00;;
7171;SDS011;3627;46.544;14.944;2024-02-15T14:33:00;1.20;;;1.20;;
7171;SDS011;3627;46.544;14.944;2024-02-15T14:35:28;1.10;;;1.10;;
7171;SDS011;3627;46.544;14.944;2024-02-15T14:37:55;1.10;;;1.10;;
7171;SDS011;3627;46.544;14.944;2024-02-15T14:40:23;1.00;;;1.00;;
7171;SDS011;3627;46.544;14.944;2024-02-15T14:42:49;1.10;;;1.10;;
7171;SDS011;3627;46.544;14.944;2024-02-15T14:45:16;1.13;;;1.13;;
7171;SDS011;3627;46.544;14.944;2024-02-15T14:47:42;1.00;;;1.00;;
7171;SDS011;3627;46.544;14.944;2024-02-15T14:50:10;1.00;;;1.00;;
7171;SDS011;3627;46.544;14.944;2024-02-15T14:52:38;1.20;;;1.20;;
7171;SDS011;3627;46.544;14.944;2024-02-15T14:55:05;1.10;;;1.10;;
7171;SDS011;3627;46.544;14.944;2024-02-15T14:57:32;1.08;;;1.08;;
7171;SDS011;3627;46.544;14.944;2024-02-15T14:59:59;1.10;;;1.10;;
7171;SDS011;3627;46.544;14.944;2024-02-15T15:02:25;1.20;;;1.20;;
7171;SDS011;3627;46.544;14.944;2024-02-15T15:04:51;1.20;;;1.20;;
7171;SDS011;3627;46.544;14.944;2024-02-15T15:07:45;1.10;;;1.10;;
7171;SDS011;3627;46.544;14.944;2024-02-15T15:10:28;1.05;;;1.05;;
7171;SDS011;3627;46.544;14.944;2024-02-15T15:13:12;1.17;;;1.17;;
7171;SDS011;3627;46.544;14.944;2024-02-15T15:15:38;1.13;;;1.13;;
7171;SDS011;3627;46.544;14.944;2024-02-15T15:18:05;1.20;;;1.20;;
7171;SDS011;3627;46.544;14.944;2024-02-15T15:20:32;1.20;;;1.20;;
7171;SDS011;3627;46.544;14.944;2024-02-15T15:23:00;1.00;;;1.00;;